Time;durP1;ratioP1;P1;durP2;ratioP2;P2;SDS_P1;SDS_P2;PMS_P1;PMS_P2;Temp;Humidity;BMP_temperature;BMP_pressure;BME280_temperature;BME280_humidity;BME280_pressure;Samples;Min_cycle;Max_cycle;Signal;HPM_P1;HPM_P2
2022/10/11 00:00:17;;;;;;;11.95;6.22;;;14.90;99.90;;;;;;5012880;28;20482;-49
2022/10/11 00:02:42;;;;;;;14.35;6.75;;;14.90;99.90;;;;;;5012478;28;20022;-46
2022/10/11 00:05:09;;;;;;;13.88;7.22;;;14.80;99.90;;;;;;5012915;28;20018;-46
2022/10/11 00:07:36;;;;;;;19.50;8.68;;;14.80;99.90;;;;;;5012688;28;20440;-47
2022/10/11 00:10:04;;;;;;;16.02;7.82;;;14.70;99.90;;;;;;5012933;28;20032;-52
2022/10/11 00:12:30;;;;;;;20.02;7.32;;;14.70;99.90;;;;;;5012242;28;20402;-44
2022/10/11 00:14:55;;;;;;;18.65;9.00;;;14.70;99.90;;;;;;5011490;28;20025;-45
2022/10/11 00:17:21;;;;;;;19.30;7.55;;;14.60;99.90;;;;;;5011924;28;20029;-46
2022/10/11 00:19:47;;;;;;;19.20;8.93;;;14.60;99.90;;;;;;5012699;28;20026;-45
2022/10/11 00:22:12;;;;;;;22.30;9.48;;;14.50;99.90;;;;;;5012685;28;20174;-51
2022/10/11 00:24:38;;;;;;;18.00;9.32;;;14.50;99.90;;;;;;5012437;28;20025;-48
2022/10/11 00:27:04;;;;;;;17.70;9.57;;;14.40;99.90;;;;;;5012316;28;20088;-48
2022/10/11 00:29:29;;;;;;;19.25;9.70;;;14.40;99.90;;;;;;5012189;28;20026;-48
2022/10/11 00:31:55;;;;;;;18.55;9.10;;;14.30;99.90;;;;;;5012135;28;20038;-48
2022/10/11 00:34:20;;;;;;;19.42;9.18;;;14.30;99.90;;;;;;5012425;28;20393;-48
2022/10/11 00:36:46;;;;;;;20.40;10.10;;;14.20;99.90;;;;;;5012474;28;20402;-47
2022/10/11 00:39:12;;;;;;;17.30;9.73;;;14.20;99.90;;;;;;5011855;28;20057;-50
2022/10/11 00:41:37;;;;;;;13.93;8.93;;;14.20;99.90;;;;;;5012031;28;20068;-47
2022/10/11 00:44:18;;;;;;;22.45;10.25;;;14.20;99.90;;;;;;5011829;28;20432;-48
2022/10/11 00:46:51;;;;;;;17.67;11.60;;;14.10;99.90;;;;;;5011909;28;20028;-45
2022/10/11 00:49:28;;;;;;;15.98;10.68;;;14.10;99.90;;;;;;5011940;28;20110;-46
2022/10/11 00:51:59;;;;;;;21.42;9.57;;;14.00;99.90;;;;;;5011439;28;20021;-49
2022/10/11 00:54:28;;;;;;;17.42;10.27;;;14.00;99.90;;;;;;5012075;28;20021;-46
2022/10/11 00:57:00;;;;;;;17.70;10.63;;;13.90;99.90;;;;;;5012259;28;20510;-49
2022/10/11 00:59:29;;;;;;;20.17;10.90;;;14.00;99.90;;;;;;5011625;28;20030;-53
2022/10/11 01:01:55;;;;;;;16.30;10.00;;;14.00;99.90;;;;;;5011208;28;20414;-46
2022/10/11 01:04:21;;;;;;;23.75;11.82;;;14.00;99.90;;;;;;5026717;22;20037;-48
2022/10/11 01:06:49;;;;;;;25.48;13.02;;;14.00;99.90;;;;;;5011922;28;20038;-48
2022/10/11 01:09:15;;;;;;;16.33;10.80;;;14.00;99.90;;;;;;5011634;28;20029;-45
2022/10/11 01:11:42;;;;;;;23.48;13.00;;;14.00;99.90;;;;;;5011931;28;20034;-47
2022/10/11 01:14:33;;;;;;;38.75;22.60;;;14.10;99.90;;;;;;5011409;28;20057;-48
2022/10/11 01:17:36;;;;;;;42.15;26.17;;;14.10;99.90;;;;;;5010401;28;20122;-52
2022/10/11 01:20:07;;;;;;;19.98;13.25;;;14.10;99.90;;;;;;5011651;28;20026;-50
2022/10/11 01:22:57;;;;;;;26.20;14.50;;;14.10;99.90;;;;;;5011297;28;20474;-46
2022/10/11 01:25:25;;;;;;;19.50;13.20;;;14.00;99.90;;;;;;5011684;28;20030;-48
2022/10/11 01:28:13;;;;;;;26.00;15.10;;;14.00;99.90;;;;;;5011515;28;20034;-48
2022/10/11 01:30:39;;;;;;;20.52;14.55;;;14.00;99.90;;;;;;5015564;28;20379;-50
2022/10/11 01:33:16;;;;;;;20.27;13.70;;;14.00;99.90;;;;;;5015275;28;20100;-48
2022/10/11 01:35:51;;;;;;;29.00;15.23;;;14.00;99.90;;;;;;5015379;28;20029;-50
2022/10/11 01:38:32;;;;;;;17.20;14.77;;;14.00;99.90;;;;;;5015398;28;20628;-48
2022/10/11 01:41:05;;;;;;;17.23;13.80;;;14.00;99.90;;;;;;5015457;28;20126;-48
2022/10/11 01:43:31;;;;;;;24.42;14.55;;;14.00;99.90;;;;;;5015032;28;20021;-49
2022/10/11 01:45:59;;;;;;;24.23;15.70;;;13.90;99.90;;;;;;5013409;28;20096;-47
2022/10/11 01:48:25;;;;;;;26.83;15.65;;;13.90;99.90;;;;;;5015094;28;20029;-47
2022/10/11 01:50:52;;;;;;;19.52;14.30;;;13.80;99.90;;;;;;5015181;28;20033;-47
2022/10/11 01:53:39;;;;;;;22.02;15.60;;;13.80;99.90;;;;;;5014782;28;20404;-47
2022/10/11 01:56:42;;;;;;;21.75;15.13;;;13.80;99.90;;;;;;5013841;28;20405;-50
2022/10/11 01:59:42;;;;;;;21.10;15.02;;;13.70;99.90;;;;;;5014964;28;20539;-46
2022/10/11 02:02:32;;;;;;;22.15;15.88;;;13.70;99.90;;;;;;5014935;28;20029;-47
2022/10/11 02:05:16;;;;;;;25.55;15.95;;;13.70;99.90;;;;;;5014711;28;20120;-52
2022/10/11 02:08:02;;;;;;;27.98;16.33;;;13.70;99.90;;;;;;5015320;28;20022;-50
2022/10/11 02:10:39;;;;;;;31.40;15.93;;;13.60;99.90;;;;;;5014803;28;20029;-52
2022/10/11 02:13:25;;;;;;;27.83;16.40;;;13.50;99.90;;;;;;5014446;28;20030;-45
2022/10/11 02:15:52;;;;;;;23.25;16.17;;;13.40;99.90;;;;;;5014689;28;20061;-48
2022/10/11 02:18:22;;;;;;;27.15;15.75;;;13.40;99.90;;;;;;5014488;28;20057;-47
2022/10/11 02:20:50;;;;;;;24.02;16.42;;;13.40;99.90;;;;;;5014723;28;20481;-48
2022/10/11 02:23:33;;;;;;;21.00;15.23;;;13.40;99.90;;;;;;5013016;28;20026;-46
2022/10/11 02:25:59;;;;;;;25.33;16.13;;;13.30;99.90;;;;;;5014619;28;20389;-44
2022/10/11 02:28:30;;;;;;;18.58;14.65;;;13.30;99.90;;;;;;5014342;28;20029;-48
2022/10/11 02:30:58;;;;;;;22.00;14.63;;;13.30;99.90;;;;;;5014430;28;20018;-50
2022/10/11 02:33:35;;;;;;;12.57;8.98;;;13.30;99.90;;;;;;5014165;28;20029;-48
2022/10/11 02:36:09;;;;;;;11.82;7.03;;;13.20;99.90;;;;;;5014373;28;20036;-52
2022/10/11 02:38:44;;;;;;;8.00;4.95;;;13.20;99.90;;;;;;5013031;28;20539;-44
2022/10/11 02:41:37;;;;;;;9.90;5.13;;;13.10;99.90;;;;;;5012270;28;20068;-46
2022/10/11 02:44:15;;;;;;;13.20;5.30;;;13.00;99.90;;;;;;5013829;28;20045;-48
2022/10/11 02:46:44;;;;;;;11.98;4.85;;;13.00;99.90;;;;;;5013979;28;20030;-53
2022/10/11 02:49:11;;;;;;;6.85;5.13;;;13.00;99.90;;;;;;5013859;28;20025;-51
2022/10/11 02:51:37;;;;;;;6.13;4.60;;;12.90;99.90;;;;;;5014057;28;20568;-48
2022/10/11 02:54:03;;;;;;;8.30;4.50;;;12.90;99.90;;;;;;5013455;28;20025;-47
2022/10/11 02:56:28;;;;;;;6.82;3.80;;;12.90;99.90;;;;;;5013986;28;20030;-47
2022/10/11 02:58:54;;;;;;;7.35;4.47;;;12.90;99.90;;;;;;5013539;28;20112;-51
2022/10/11 03:01:19;;;;;;;7.72;3.72;;;12.80;99.90;;;;;;5013952;28;20026;-48
2022/10/11 03:03:45;;;;;;;12.25;2.92;;;12.80;99.90;;;;;;5013389;28;20018;-49
2022/10/11 03:06:11;;;;;;;6.47;3.55;;;12.70;99.90;;;;;;5013590;28;20164;-47
2022/10/11 03:08:36;;;;;;;6.88;3.30;;;12.70;99.90;;;;;;5013421;28;20056;-52
2022/10/11 03:11:02;;;;;;;11.65;2.92;;;12.60;99.90;;;;;;5012703;28;20026;-49
2022/10/11 03:13:27;;;;;;;11.23;3.80;;;12.70;99.90;;;;;;5011445;28;20105;-48
2022/10/11 03:15:54;;;;;;;6.53;2.35;;;12.70;99.90;;;;;;5012514;28;20444;-47
2022/10/11 03:18:20;;;;;;;7.05;2.47;;;12.70;99.90;;;;;;5012339;28;20493;-48
2022/10/11 03:20:46;;;;;;;15.73;3.30;;;12.60;99.90;;;;;;5012108;28;20030;-47
2022/10/11 03:23:12;;;;;;;13.60;3.00;;;12.50;99.90;;;;;;5013165;28;20022;-50
2022/10/11 03:25:38;;;;;;;7.60;2.80;;;12.40;99.90;;;;;;5012948;28;20026;-49
2022/10/11 03:28:03;;;;;;;9.02;2.50;;;12.40;99.90;;;;;;5013339;28;20033;-47
2022/10/11 03:30:29;;;;;;;5.93;2.38;;;12.30;99.90;;;;;;5013283;28;20030;-53
2022/10/11 03:32:55;;;;;;;6.35;2.13;;;12.20;99.90;;;;;;5012996;28;20022;-49
2022/10/11 03:35:20;;;;;;;8.73;2.47;;;12.20;99.90;;;;;;5013172;28;20508;-49
2022/10/11 03:37:46;;;;;;;12.10;2.50;;;12.10;99.90;;;;;;5013176;28;20537;-50
2022/10/11 03:40:12;;;;;;;8.20;2.58;;;12.10;99.90;;;;;;5012947;28;20034;-50
2022/10/11 03:42:38;;;;;;;5.32;2.10;;;12.00;99.90;;;;;;5012859;28;20044;-52
2022/10/11 03:45:06;;;;;;;6.07;2.35;;;12.00;99.90;;;;;;5012600;28;20034;-43
2022/10/11 03:47:33;;;;;;;8.20;2.70;;;12.00;99.90;;;;;;5028269;28;20032;-51
2022/10/11 03:49:58;;;;;;;26.40;3.80;;;11.90;99.90;;;;;;5012796;28;20037;-47
2022/10/11 03:52:24;;;;;;;8.07;2.50;;;11.90;99.90;;;;;;5010206;28;20478;-46
2022/10/11 03:54:50;;;;;;;4.22;1.67;;;11.80;99.90;;;;;;5012740;28;20022;-45
2022/10/11 03:57:15;;;;;;;10.73;2.28;;;11.80;99.90;;;;;;5012946;28;20074;-48
2022/10/11 03:59:41;;;;;;;6.85;2.22;;;11.70;99.90;;;;;;5012495;28;20032;-52
2022/10/11 04:02:06;;;;;;;9.05;2.90;;;11.60;99.90;;;;;;5012450;28;20022;-47
2022/10/11 04:04:32;;;;;;;9.27;2.20;;;11.60;99.90;;;;;;5012563;28;20038;-49
2022/10/11 04:06:57;;;;;;;9.15;2.20;;;11.60;99.90;;;;;;5012682;28;20049;-44
2022/10/11 04:09:23;;;;;;;8.93;2.20;;;11.50;99.90;;;;;;5012576;28;20045;-48
2022/10/11 04:11:48;;;;;;;15.02;2.58;;;11.50;99.90;;;;;;5012654;28;20025;-49
2022/10/11 04:14:14;;;;;;;8.50;2.47;;;11.40;99.90;;;;;;5011201;28;20072;-45
2022/10/11 04:16:40;;;;;;;9.77;1.92;;;11.40;99.90;;;;;;5012465;28;20041;-49
2022/10/11 04:19:05;;;;;;;7.40;2.00;;;11.40;99.90;;;;;;5012342;28;20030;-49
2022/10/11 04:21:31;;;;;;;12.32;2.20;;;11.20;99.90;;;;;;5012315;28;20474;-47
2022/10/11 04:23:56;;;;;;;6.07;2.80;;;11.20;99.90;;;;;;5012182;28;20061;-46
2022/10/11 04:26:23;;;;;;;9.38;2.35;;;11.20;99.90;;;;;;5012648;28;20113;-52
2022/10/11 04:28:48;;;;;;;7.75;2.63;;;11.10;99.90;;;;;;5012329;28;20032;-49
2022/10/11 04:31:14;;;;;;;14.35;2.35;;;11.00;99.90;;;;;;5012370;28;20401;-49
2022/10/11 04:33:39;;;;;;;5.75;2.25;;;11.00;99.90;;;;;;5012228;28;20117;-47
2022/10/11 04:36:05;;;;;;;11.55;2.83;;;11.00;99.90;;;;;;5012155;28;20087;-44
2022/10/11 04:38:31;;;;;;;3.67;1.80;;;10.90;99.90;;;;;;5011927;28;20037;-52
2022/10/11 04:41:05;;;;;;;8.88;2.22;;;10.90;99.90;;;;;;5012119;28;20441;-49
2022/10/11 04:43:31;;;;;;;8.87;1.97;;;11.00;99.90;;;;;;5011676;28;20018;-49
2022/10/11 04:45:57;;;;;;;6.57;1.70;;;11.00;99.90;;;;;;5011663;28;20033;-45
2022/10/11 04:48:22;;;;;;;6.35;2.05;;;11.00;99.90;;;;;;5011944;28;20045;-47
2022/10/11 04:50:48;;;;;;;12.90;2.53;;;10.90;99.90;;;;;;5011866;28;20485;-48
2022/10/11 04:53:14;;;;;;;10.07;2.00;;;10.90;99.90;;;;;;5011589;28;20042;-50
2022/10/11 04:55:39;;;;;;;7.45;2.30;;;10.90;99.90;;;;;;5011720;28;20079;-48
2022/10/11 04:58:05;;;;;;;10.10;2.10;;;10.80;99.90;;;;;;5011897;28;20026;-51
2022/10/11 05:00:30;;;;;;;15.98;2.50;;;10.80;99.90;;;;;;5012266;28;20544;-51
2022/10/11 05:02:56;;;;;;;9.45;2.05;;;10.80;99.90;;;;;;5011323;28;20052;-52
2022/10/11 05:05:21;;;;;;;8.75;2.90;;;10.80;99.90;;;;;;5026816;28;20038;-52
2022/10/11 05:07:47;;;;;;;12.05;2.22;;;10.80;99.90;;;;;;5011691;28;20034;-48
2022/10/11 05:10:13;;;;;;;6.10;1.48;;;10.80;99.90;;;;;;5011632;28;20095;-50
2022/10/11 05:12:38;;;;;;;7.43;2.05;;;10.70;99.90;;;;;;5011300;28;20050;-47
2022/10/11 05:15:05;;;;;;;7.40;1.98;;;10.70;99.90;;;;;;5011676;28;20438;-47
2022/10/11 05:17:31;;;;;;;5.55;2.17;;;10.80;99.90;;;;;;5011616;28;20033;-52
2022/10/11 05:19:56;;;;;;;14.93;3.15;;;10.70;99.90;;;;;;5011578;28;20409;-46
2022/10/11 05:22:22;;;;;;;9.55;2.00;;;10.80;99.90;;;;;;5011311;28;20069;-48
2022/10/11 05:24:47;;;;;;;6.13;2.03;;;10.70;99.90;;;;;;5011451;28;20506;-52
2022/10/11 05:27:13;;;;;;;8.02;1.77;;;10.70;99.90;;;;;;5011443;28;20474;-52
2022/10/11 05:29:38;;;;;;;9.07;2.70;;;10.70;99.90;;;;;;5011412;28;20481;-49
2022/10/11 05:32:04;;;;;;;11.10;3.63;;;10.70;99.90;;;;;;5011233;28;20030;-43
2022/10/11 05:34:29;;;;;;;9.02;2.33;;;10.50;99.90;;;;;;5026531;28;20033;-51
2022/10/11 05:36:56;;;;;;;11.77;2.88;;;10.40;99.90;;;;;;5011422;28;20045;-51
2022/10/11 05:39:21;;;;;;;8.35;2.42;;;10.30;99.90;;;;;;5011317;28;20105;-47
2022/10/11 05:41:47;;;;;;;13.70;2.60;;;10.30;99.90;;;;;;5011142;28;20119;-46
2022/10/11 05:44:12;;;;;;;6.72;2.08;;;10.20;99.90;;;;;;5011223;28;20033;-47
2022/10/11 05:46:38;;;;;;;10.43;3.25;;;10.20;99.90;;;;;;5011384;28;20030;-50
2022/10/11 05:49:04;;;;;;;15.27;2.58;;;10.20;99.90;;;;;;5011393;28;20421;-48
2022/10/11 05:51:29;;;;;;;7.55;2.72;;;10.20;99.90;;;;;;5011353;28;20482;-48
2022/10/11 05:53:55;;;;;;;11.63;2.30;;;10.10;99.90;;;;;;5011197;28;20478;-48
2022/10/11 05:56:23;;;;;;;9.98;2.03;;;10.10;99.90;;;;;;5011198;28;20034;-53
2022/10/11 05:58:49;;;;;;;11.27;2.38;;;10.10;99.90;;;;;;5011180;28;20026;-48
2022/10/11 06:01:17;;;;;;;7.78;2.45;;;10.10;99.90;;;;;;5011284;28;20025;-49
2022/10/11 06:03:43;;;;;;;10.57;2.50;;;10.10;99.90;;;;;;5010857;28;20076;-47
2022/10/11 06:06:08;;;;;;;6.35;1.83;;;10.00;99.90;;;;;;5011455;28;20030;-48
2022/10/11 06:08:34;;;;;;;14.48;3.10;;;10.10;99.90;;;;;;5010908;28;20041;-49
2022/10/11 06:11:15;;;;;;;15.82;2.55;;;10.10;99.90;;;;;;5011112;28;20490;-48
2022/10/11 06:13:41;;;;;;;19.83;2.80;;;10.10;99.90;;;;;;5010978;28;20052;-55
2022/10/11 06:16:07;;;;;;;12.40;2.10;;;10.10;99.90;;;;;;5014382;28;20109;-48
2022/10/11 06:18:33;;;;;;;8.27;2.65;;;10.10;99.90;;;;;;5014501;28;20029;-49
2022/10/11 06:20:59;;;;;;;12.20;2.42;;;10.10;99.90;;;;;;5014692;28;20045;-47
2022/10/11 06:23:24;;;;;;;11.93;3.13;;;10.10;99.90;;;;;;5014435;28;20030;-48
2022/10/11 06:25:58;;;;;;;12.88;2.28;;;10.30;99.90;;;;;;5014513;28;20381;-49
2022/10/11 06:28:25;;;;;;;13.20;2.88;;;10.30;99.90;;;;;;5014493;28;20151;-54
2022/10/11 06:30:51;;;;;;;8.57;2.75;;;10.40;99.90;;;;;;5014724;28;20033;-50
2022/10/11 06:33:17;;;;;;;8.43;3.22;;;10.40;99.90;;;;;;5014164;28;20040;-51
2022/10/11 06:35:42;;;;;;;9.77;2.35;;;10.50;99.90;;;;;;5014578;28;20057;-52
2022/10/11 06:38:08;;;;;;;14.30;3.15;;;10.60;99.90;;;;;;5014600;28;20061;-49
2022/10/11 06:40:33;;;;;;;12.07;2.20;;;10.70;99.90;;;;;;5014428;28;20479;-47
2022/10/11 06:42:59;;;;;;;7.72;2.58;;;10.80;99.90;;;;;;5013992;28;20032;-51
2022/10/11 06:45:24;;;;;;;12.55;2.67;;;11.00;99.90;;;;;;5014005;28;20029;-48
2022/10/11 06:47:50;;;;;;;12.80;2.58;;;11.20;99.90;;;;;;5014246;28;20105;-49
2022/10/11 06:50:15;;;;;;;15.82;2.38;;;11.30;99.90;;;;;;5014611;28;20058;-49
2022/10/11 06:52:41;;;;;;;8.48;1.92;;;11.60;99.90;;;;;;5014441;28;20398;-48
2022/10/11 06:55:06;;;;;;;9.15;2.17;;;11.90;99.90;;;;;;5014059;28;20034;-47
2022/10/11 06:57:32;;;;;;;9.85;2.58;;;12.40;99.90;;;;;;5014060;28;20026;-47
2022/10/11 06:59:57;;;;;;;15.80;2.28;;;12.80;99.90;;;;;;5012794;28;20030;-49
2022/10/11 07:02:23;;;;;;;14.27;2.30;;;13.00;99.90;;;;;;5013673;28;20091;-47
2022/10/11 07:07:18;;;;;;;10.52;2.47;;;13.30;99.90;;;;;;5030647;28;20049;-47
2022/10/11 07:09:43;;;;;;;10.57;2.13;;;13.50;99.90;;;;;;5033467;28;20040;-48
2022/10/11 07:12:09;;;;;;;11.73;2.97;;;14.10;99.90;;;;;;5048319;28;20029;-46
2022/10/11 07:14:34;;;;;;;12.05;2.40;;;14.20;99.90;;;;;;5033352;28;20041;-49
2022/10/11 07:17:00;;;;;;;13.55;3.00;;;13.80;99.90;;;;;;5033268;28;20030;-48
2022/10/11 07:19:25;;;;;;;11.90;2.63;;;13.80;99.90;;;;;;5033182;28;20512;-46
2022/10/11 07:21:51;;;;;;;9.50;2.20;;;13.40;99.90;;;;;;5033069;28;20025;-57
2022/10/11 07:24:17;;;;;;;12.55;2.70;;;13.00;99.90;;;;;;5033122;28;20397;-46
2022/10/11 07:26:42;;;;;;;12.00;2.60;;;12.50;99.90;;;;;;5030610;28;20485;-46
2022/10/11 07:29:09;;;;;;;11.60;2.45;;;12.30;99.90;;;;;;5033013;28;20026;-49
2022/10/11 07:31:37;;;;;;;13.15;3.17;;;12.10;99.90;;;;;;5033231;28;20473;-49
2022/10/11 07:34:02;;;;;;;10.00;2.88;;;11.90;99.90;;;;;;5032855;28;20549;-47
2022/10/11 07:36:28;;;;;;;14.20;3.10;;;11.80;99.90;;;;;;5032860;28;20124;-47
2022/10/11 07:38:53;;;;;;;10.20;3.38;;;11.70;99.90;;;;;;5032768;28;20057;-49
2022/10/11 07:41:19;;;;;;;14.50;3.10;;;11.60;99.90;;;;;;5032936;28;20046;-48
2022/10/11 07:43:48;;;;;;;16.08;2.95;;;11.60;99.90;;;;;;5032442;28;20072;-48
2022/10/11 07:46:14;;;;;;;15.27;3.13;;;11.70;99.90;;;;;;5032701;28;20104;-50
2022/10/11 07:48:40;;;;;;;14.60;3.20;;;11.70;99.90;;;;;;5032624;28;20501;-50
2022/10/11 07:51:15;;;;;;;11.25;2.92;;;11.50;99.90;;;;;;5032746;28;20025;-49
2022/10/11 07:53:43;;;;;;;9.52;1.83;;;11.60;99.90;;;;;;5032563;28;20036;-47
2022/10/11 07:56:11;;;;;;;10.90;2.33;;;11.70;99.90;;;;;;5032601;28;20493;-48
2022/10/11 07:58:37;;;;;;;13.98;2.92;;;11.70;99.90;;;;;;5032391;28;20076;-47
2022/10/11 08:01:03;;;;;;;11.73;2.15;;;11.80;99.90;;;;;;5032480;28;20025;-53
2022/10/11 08:03:29;;;;;;;15.05;3.55;;;11.80;99.90;;;;;;5032360;28;20557;-49
2022/10/11 08:06:02;;;;;;;14.65;3.03;;;11.80;99.90;;;;;;5032216;28;20033;-48
2022/10/11 08:08:28;;;;;;;23.52;4.15;;;11.80;99.90;;;;;;5032207;28;20025;-50
2022/10/11 08:10:54;;;;;;;18.50;2.72;;;12.00;99.90;;;;;;5032486;28;20052;-47
2022/10/11 08:13:19;;;;;;;9.77;2.33;;;11.90;99.90;;;;;;5032017;28;20441;-53
2022/10/11 08:15:45;;;;;;;8.98;2.15;;;11.90;99.90;;;;;;5032213;28;20481;-50
2022/10/11 08:18:10;;;;;;;15.73;3.92;;;11.80;99.90;;;;;;5030709;28;20040;-51
2022/10/11 08:20:39;;;;;;;10.38;2.97;;;11.80;99.90;;;;;;5032258;28;20025;-46
2022/10/11 08:23:05;;;;;;;13.75;2.38;;;11.70;99.90;;;;;;5032330;28;20417;-48
2022/10/11 08:25:34;;;;;;;15.60;3.40;;;11.70;99.90;;;;;;5031240;28;20079;-51
2022/10/11 08:27:59;;;;;;;10.90;2.55;;;11.70;99.90;;;;;;5032138;28;20026;-48
2022/10/11 08:30:25;;;;;;;13.35;3.25;;;11.80;99.90;;;;;;5032031;28;20026;-49
2022/10/11 08:32:50;;;;;;;16.52;3.95;;;11.80;99.90;;;;;;5031919;28;20021;-50
2022/10/11 08:35:16;;;;;;;13.90;3.05;;;11.80;99.90;;;;;;5031942;28;20037;-49
2022/10/11 08:37:41;;;;;;;17.65;3.63;;;11.90;99.90;;;;;;5030601;28;20033;-48
2022/10/11 08:40:13;;;;;;;21.95;3.30;;;11.90;99.90;;;;;;5032092;28;20485;-47
2022/10/11 08:42:47;;;;;;;16.65;2.95;;;12.00;99.90;;;;;;5032156;28;20033;-49
2022/10/11 08:45:30;;;;;;;13.90;2.60;;;12.00;99.90;;;;;;5031761;28;20025;-49
2022/10/11 08:48:05;;;;;;;14.73;2.75;;;12.00;99.90;;;;;;5031904;28;20025;-48
2022/10/11 08:50:31;;;;;;;12.98;2.40;;;12.10;99.90;;;;;;5031800;28;20045;-54
2022/10/11 08:53:03;;;;;;;14.43;2.65;;;12.20;99.90;;;;;;5031434;28;20021;-51
2022/10/11 08:55:50;;;;;;;13.30;2.85;;;12.20;99.90;;;;;;5031841;28;20102;-47
2022/10/11 08:58:24;;;;;;;12.38;2.17;;;12.30;99.90;;;;;;5031663;28;20026;-53
2022/10/11 09:00:53;;;;;;;14.07;3.07;;;12.40;99.90;;;;;;5032004;28;20374;-48
2022/10/11 09:03:41;;;;;;;12.75;2.22;;;12.50;99.90;;;;;;5031417;28;20025;-51
2022/10/11 09:06:13;;;;;;;12.20;2.45;;;12.60;99.90;;;;;;5031705;28;20021;-49
2022/10/11 09:09:15;;;;;;;14.13;3.08;;;12.80;99.90;;;;;;5030497;28;20033;-47
2022/10/11 09:12:06;;;;;;;9.07;2.10;;;13.90;99.90;;;;;;5030508;28;20445;-48
2022/10/11 09:14:51;;;;;;;12.18;2.50;;;14.80;99.90;;;;;;5031542;28;20128;-48
2022/10/11 09:18:04;;;;;;;12.65;2.65;;;15.50;99.90;;;;;;5031819;28;20064;-51
2022/10/11 09:20:33;;;;;;;16.48;2.95;;;16.10;99.90;;;;;;4987050;28;20120;-47
2022/10/11 09:23:18;;;;;;;9.07;2.25;;;16.70;99.90;;;;;;5031026;28;20025;-49
2022/10/11 09:25:58;;;;;;;11.73;2.37;;;16.70;99.90;;;;;;5031476;28;20025;-48
2022/10/11 09:28:32;;;;;;;12.70;2.22;;;17.40;99.90;;;;;;5031435;28;20017;-51
2022/10/11 09:30:58;;;;;;;6.75;2.17;;;17.70;99.30;;;;;;5031350;28;20392;-47
2022/10/11 09:33:37;;;;;;;8.13;2.10;;;17.90;98.10;;;;;;5030792;28;20104;-52
2022/10/11 09:36:32;;;;;;;11.13;2.45;;;17.70;98.30;;;;;;5031165;28;20120;-46
2022/10/11 09:39:10;;;;;;;11.25;2.20;;;17.50;98.60;;;;;;5030922;28;20030;-47
2022/10/11 09:41:44;;;;;;;16.92;2.40;;;17.60;98.30;;;;;;5031544;28;20033;-53
2022/10/11 09:44:37;;;;;;;5.75;1.90;;;17.10;98.40;;;;;;5029669;28;20044;-51
2022/10/11 09:47:04;;;;;;;9.02;2.08;;;17.00;99.00;;;;;;5022512;28;20547;-48
2022/10/11 09:49:46;;;;;;;13.57;2.15;;;16.10;99.80;;;;;;5031934;28;20099;-50
2022/10/11 09:52:18;;;;;;;10.15;1.83;;;15.60;99.90;;;;;;5035081;28;20474;-47
2022/10/11 09:54:56;;;;;;;10.35;3.25;;;15.60;99.90;;;;;;5034999;28;20159;-46
2022/10/11 09:57:25;;;;;;;13.80;2.50;;;15.40;99.90;;;;;;5034983;28;20021;-49
2022/10/11 10:00:25;;;;;;;7.20;1.92;;;15.70;99.90;;;;;;5034692;28;20432;-50
2022/10/11 10:02:54;;;;;;;10.70;1.98;;;15.90;99.90;;;;;;5034677;28;20101;-52
2022/10/11 10:05:20;;;;;;;11.63;2.45;;;16.00;99.20;;;;;;5034747;28;20078;-52
2022/10/11 10:08:08;;;;;;;6.93;1.77;;;15.90;99.50;;;;;;5034841;28;20071;-50
2022/10/11 10:10:39;;;;;;;9.32;2.55;;;16.00;99.70;;;;;;5033499;28;20048;-48
2022/10/11 10:13:18;;;;;;;6.25;1.52;;;16.20;99.30;;;;;;5033269;28;20022;-49
2022/10/11 10:15:47;;;;;;;12.50;1.73;;;16.20;99.60;;;;;;5034764;28;20026;-52
2022/10/11 10:18:41;;;;;;;11.77;4.70;;;16.10;99.70;;;;;;5034296;28;20098;-53
2022/10/11 10:21:11;;;;;;;25.67;13.70;;;16.20;99.50;;;;;;5034537;28;20439;-48
2022/10/11 10:23:36;;;;;;;10.02;2.60;;;16.20;99.30;;;;;;5034211;28;20076;-48
2022/10/11 10:26:16;;;;;;;8.57;2.58;;;16.30;99.40;;;;;;5034047;28;20049;-50
2022/10/11 10:29:09;;;;;;;6.68;1.90;;;16.20;99.50;;;;;;5033671;28;20065;-50
2022/10/11 10:31:49;;;;;;;7.30;1.80;;;16.30;99.10;;;;;;5034198;28;20076;-50
2022/10/11 10:34:22;;;;;;;10.65;2.63;;;16.30;99.30;;;;;;5033641;28;20033;-53
2022/10/11 10:36:55;;;;;;;13.25;1.98;;;16.30;99.20;;;;;;5032577;28;20052;-53
2022/10/11 10:39:39;;;;;;;15.43;2.03;;;16.20;99.40;;;;;;5032418;28;20374;-51
2022/10/11 10:42:12;;;;;;;15.48;2.20;;;16.00;99.60;;;;;;5033035;28;20516;-51
2022/10/11 10:44:38;;;;;;;9.57;2.20;;;15.90;99.90;;;;;;5032305;28;20040;-50
2022/10/11 10:47:25;;;;;;;8.70;1.88;;;15.70;99.90;;;;;;5032409;28;20025;-50
2022/10/11 10:50:30;;;;;;;10.90;2.05;;;15.80;99.90;;;;;;5033601;28;20025;-50
2022/10/11 10:53:13;;;;;;;11.02;1.60;;;15.80;99.70;;;;;;5034123;28;20033;-48
2022/10/11 10:55:41;;;;;;;10.50;1.52;;;15.60;98.30;;;;;;5032067;28;20037;-49
2022/10/11 10:58:31;;;;;;;9.88;2.65;;;15.50;99.20;;;;;;5032461;28;20120;-54
2022/10/11 11:01:08;;;;;;;7.85;1.85;;;15.40;99.90;;;;;;5033441;28;20022;-52
2022/10/11 11:03:47;;;;;;;8.63;1.92;;;15.30;99.90;;;;;;5033574;28;20026;-50
2022/10/11 11:06:36;;;;;;;7.35;1.60;;;15.20;98.90;;;;;;5033490;28;20378;-50
2022/10/11 11:09:45;;;;;;;9.82;2.45;;;15.00;99.40;;;;;;5033710;28;20443;-48
2022/10/11 11:12:22;;;;;;;8.90;1.67;;;15.20;99.90;;;;;;5031892;28;20025;-49
2022/10/11 11:15:04;;;;;;;12.15;2.30;;;15.10;99.90;;;;;;5033747;28;20021;-47
2022/10/11 11:17:53;;;;;;;7.45;2.33;;;15.30;99.90;;;;;;5033792;28;20406;-50
2022/10/11 11:20:52;;;;;;;16.65;2.22;;;15.40;99.90;;;;;;5032164;28;20029;-52
2022/10/11 11:23:36;;;;;;;8.45;1.73;;;15.40;99.90;;;;;;5029043;28;20033;-53
2022/10/11 11:26:12;;;;;;;11.48;2.28;;;15.30;99.80;;;;;;5033278;28;20026;-49
2022/10/11 11:29:04;;;;;;;10.48;2.63;;;15.40;99.90;;;;;;5032334;28;20033;-51
2022/10/11 11:31:36;;;;;;;9.55;2.60;;;15.20;99.90;;;;;;5033251;28;20493;-54
2022/10/11 11:34:19;;;;;;;10.25;2.72;;;15.20;99.90;;;;;;5031513;28;20037;-53
2022/10/11 11:36:46;;;;;;;58.47;32.97;;;15.10;99.90;;;;;;5033160;28;20363;-52
2022/10/11 11:39:26;;;;;;;9.98;3.03;;;15.00;99.90;;;;;;5031388;28;20029;-51
2022/10/11 11:42:06;;;;;;;9.93;2.20;;;14.90;99.90;;;;;;5032754;28;20378;-50
2022/10/11 11:44:36;;;;;;;13.20;1.90;;;14.90;99.90;;;;;;5033120;28;20021;-50
2022/10/11 11:47:10;;;;;;;8.27;1.63;;;14.90;99.90;;;;;;5030798;28;20032;-51
2022/10/11 11:49:39;;;;;;;6.32;1.52;;;15.00;99.90;;;;;;5031476;28;20060;-52
2022/10/11 11:52:10;;;;;;;5.35;1.45;;;15.00;99.90;;;;;;5031026;28;20400;-53
2022/10/11 11:55:07;;;;;;;11.38;2.55;;;15.00;99.90;;;;;;5032867;28;20032;-52
2022/10/11 11:57:43;;;;;;;6.25;1.50;;;15.10;99.90;;;;;;5032894;28;20083;-54
2022/10/11 12:00:29;;;;;;;6.50;2.20;;;15.20;99.90;;;;;;5031240;28;20026;-55
2022/10/11 12:03:12;;;;;;;8.80;2.38;;;15.10;99.90;;;;;;5032665;28;20429;-52
2022/10/11 12:05:38;;;;;;;5.57;1.42;;;15.20;99.90;;;;;;5032822;28;20033;-50
2022/10/11 12:08:22;;;;;;;11.60;2.28;;;15.30;99.90;;;;;;5032623;28;20473;-48
2022/10/11 12:10:48;;;;;;;10.83;2.20;;;15.40;99.50;;;;;;5032623;28;20036;-50
2022/10/11 12:13:20;;;;;;;9.77;1.77;;;15.50;99.90;;;;;;5031543;28;20025;-54
2022/10/11 12:16:19;;;;;;;6.90;2.47;;;15.30;99.70;;;;;;5031393;28;20026;-51
2022/10/11 12:19:02;;;;;;;10.98;1.55;;;15.20;99.90;;;;;;4999023;28;20179;-53
2022/10/11 12:21:31;;;;;;;6.05;1.60;;;15.30;99.90;;;;;;5030902;28;20018;-51
2022/10/11 12:24:14;;;;;;;10.60;2.55;;;15.20;99.90;;;;;;5032174;28;20388;-54
2022/10/11 12:26:54;;;;;;;7.45;2.30;;;15.30;99.70;;;;;;5032097;28;20021;-53
2022/10/11 12:29:40;;;;;;;8.00;1.92;;;15.30;99.90;;;;;;5032081;28;20397;-51
2022/10/11 12:32:05;;;;;;;9.73;1.80;;;15.30;99.90;;;;;;5030503;28;20088;-52
2022/10/11 12:34:35;;;;;;;10.85;1.67;;;15.20;99.90;;;;;;5032144;28;20029;-51
2022/10/11 12:37:19;;;;;;;11.63;1.70;;;15.30;99.60;;;;;;5031773;28;20401;-52
2022/10/11 12:39:50;;;;;;;8.82;4.43;;;15.30;99.90;;;;;;5031751;28;20464;-53
2022/10/11 12:42:19;;;;;;;45.47;25.00;;;15.40;99.60;;;;;;5030309;28;20026;-49
2022/10/11 12:45:13;;;;;;;8.35;2.40;;;15.40;99.90;;;;;;5031848;28;20453;-54
2022/10/11 12:48:06;;;;;;;6.68;1.77;;;15.50;99.90;;;;;;5031694;28;20028;-53
2022/10/11 12:51:07;;;;;;;7.13;2.13;;;15.30;99.50;;;;;;5030481;28;20018;-55
2022/10/11 12:53:51;;;;;;;9.05;1.70;;;15.40;99.60;;;;;;5031648;28;20373;-54
2022/10/11 12:56:44;;;;;;;7.13;2.00;;;15.40;99.60;;;;;;5030989;28;20029;-52
2022/10/11 12:59:20;;;;;;;8.32;1.55;;;15.40;99.90;;;;;;5031639;28;20022;-55
2022/10/11 13:01:52;;;;;;;8.80;2.45;;;15.50;99.90;;;;;;5031772;28;20028;-53
2022/10/11 13:04:24;;;;;;;5.57;1.60;;;15.50;99.90;;;;;;5031937;28;20026;-54